Time;durP1;ratioP1;P1;durP2;ratioP2;P2;SDS_P1;SDS_P2;PMS_P1;PMS_P2;Temp;Humidity;BMP_temperature;BMP_pressure;BME280_temperature;BME280_humidity;BME280_pressure;Samples;Min_cycle;Max_cycle;Signal;HPM_P1;HPM_P2
2024/03/31 00:02:15;;;;;;;35.67;6.57;;;;;;;;;;5001616;28;20645;-88
2024/03/31 00:05:20;;;;;;;31.23;6.03;;;;;;;;;;5011792;28;20177;-88
2024/03/31 00:08:24;;;;;;;40.63;5.80;;;;;;;;;;5011693;28;20547;-88
2024/03/31 00:11:29;;;;;;;41.10;6.90;;;;;;;;;;5000552;28;20180;-88
2024/03/31 00:14:33;;;;;;;33.20;5.90;;;;;;;;;;5023963;28;20184;-87
2024/03/31 00:17:37;;;;;;;34.87;5.57;;;;;;;;;;5034375;28;20189;-87
2024/03/31 00:20:42;;;;;;;34.13;5.93;;;;;;;;;;5022768;28;20181;-87
2024/03/31 00:23:46;;;;;;;35.30;6.03;;;;;;;;;;5011592;28;20180;-87
2024/03/31 00:26:50;;;;;;;32.37;5.83;;;;;;;;;;5023850;28;20220;-87
2024/03/31 00:29:55;;;;;;;30.77;6.47;;;;;;;;;;5028732;28;20177;-88
2024/03/31 00:33:00;;;;;;;39.27;5.77;;;;;;;;;;5028238;28;20180;-88
2024/03/31 00:36:05;;;;;;;33.83;6.30;;;;;;;;;;5019009;28;20212;-88
2024/03/31 00:39:09;;;;;;;42.33;6.33;;;;;;;;;;5017623;28;20213;-88
2024/03/31 00:42:14;;;;;;;34.00;6.27;;;;;;;;;;5003607;28;20180;-88
2024/03/31 00:45:18;;;;;;;30.53;6.33;;;;;;;;;;5004192;28;20181;-88
2024/03/31 00:48:22;;;;;;;38.20;5.47;;;;;;;;;;5026174;28;20181;-88
2024/03/31 00:51:26;;;;;;;29.67;5.77;;;;;;;;;;5026379;28;20618;-88
2024/03/31 00:54:31;;;;;;;37.63;5.37;;;;;;;;;;5026066;28;20629;-88
2024/03/31 00:57:36;;;;;;;35.07;5.50;;;;;;;;;;5026389;28;20184;-88
2024/03/31 01:00:40;;;;;;;35.30;5.13;;;;;;;;;;5014786;28;20220;-88
2024/03/31 01:03:44;;;;;;;46.63;6.20;;;;;;;;;;5026282;28;20180;-88
2024/03/31 01:06:48;;;;;;;31.40;6.57;;;;;;;;;;5025722;28;20216;-88
2024/03/31 01:09:52;;;;;;;36.03;5.63;;;;;;;;;;5014668;28;20181;-88
2024/03/31 01:12:56;;;;;;;33.13;5.50;;;;;;;;;;5025520;28;20184;-88
2024/03/31 01:16:03;;;;;;;28.13;5.63;;;;;;;;;;5026218;28;20220;-88
2024/03/31 01:19:09;;;;;;;36.03;6.33;;;;;;;;;;5003366;28;20212;-88
2024/03/31 01:22:17;;;;;;;37.13;6.83;;;;;;;;;;5003496;28;20181;-88
2024/03/31 01:25:31;;;;;;;38.73;6.40;;;;;;;;;;5025171;28;20547;-88
2024/03/31 01:28:53;;;;;;;33.87;5.37;;;;;;;;;;5027675;28;20200;-88
2024/03/31 01:31:57;;;;;;;31.97;5.97;;;;;;;;;;5014214;28;20189;-88
2024/03/31 01:35:02;;;;;;;37.93;6.60;;;;;;;;;;5014251;28;20184;-88
2024/03/31 01:38:06;;;;;;;35.63;6.40;;;;;;;;;;5001549;28;20181;-88
2024/03/31 01:41:10;;;;;;;38.33;5.80;;;;;;;;;;5025598;28;20177;-88
2024/03/31 01:44:14;;;;;;;41.80;6.07;;;;;;;;;;5025262;28;20176;-88
2024/03/31 01:47:18;;;;;;;39.10;7.60;;;;;;;;;;5024801;28;20216;-88
2024/03/31 01:50:22;;;;;;;36.53;7.17;;;;;;;;;;5025006;28;20177;-88
2024/03/31 01:53:27;;;;;;;33.37;6.30;;;;;;;;;;5013857;28;20630;-88
2024/03/31 01:56:31;;;;;;;34.13;6.03;;;;;;;;;;5002229;28;20697;-88
2024/03/31 01:59:35;;;;;;;40.40;5.93;;;;;;;;;;5002311;28;20666;-88
2024/03/31 02:02:39;;;;;;;43.87;7.53;;;;;;;;;;5024750;28;20181;-88
2024/03/31 02:05:44;;;;;;;53.33;8.10;;;;;;;;;;5025182;28;20220;-87
2024/03/31 02:08:49;;;;;;;53.80;6.90;;;;;;;;;;5013498;28;20185;-88
2024/03/31 02:11:53;;;;;;;41.47;8.23;;;;;;;;;;5024431;28;20542;-88
2024/03/31 02:14:57;;;;;;;36.80;6.83;;;;;;;;;;5013395;28;20181;-88
2024/03/31 02:18:01;;;;;;;45.17;7.00;;;;;;;;;;5012892;28;20181;-88
2024/03/31 02:21:06;;;;;;;28.37;6.80;;;;;;;;;;5023976;28;20209;-88
2024/03/31 02:24:10;;;;;;;40.87;7.03;;;;;;;;;;5024448;28;20185;-86
2024/03/31 02:27:14;;;;;;;29.30;6.00;;;;;;;;;;5013016;28;20704;-86
2024/03/31 02:30:22;;;;;;;30.57;5.53;;;;;;;;;;5013425;28;20642;-86
2024/03/31 02:33:27;;;;;;;31.23;6.27;;;;;;;;;;5013299;28;20176;-86
2024/03/31 02:36:31;;;;;;;37.40;7.17;;;;;;;;;;5002241;28;20220;-86
2024/03/31 02:39:36;;;;;;;37.33;6.90;;;;;;;;;;5013043;28;20205;-86
2024/03/31 02:42:41;;;;;;;28.47;6.50;;;;;;;;;;5001768;28;20185;-86
2024/03/31 02:45:49;;;;;;;28.30;5.77;;;;;;;;;;5003000;28;20224;-86
2024/03/31 02:48:53;;;;;;;36.20;5.70;;;;;;;;;;5013079;28;20185;-86
2024/03/31 02:51:57;;;;;;;35.37;5.73;;;;;;;;;;5002248;28;20176;-86
2024/03/31 02:55:03;;;;;;;20.73;3.97;;;;;;;;;;5002304;28;20180;-86
2024/03/31 02:58:07;;;;;;;34.93;5.07;;;;;;;;;;5001915;28;20185;-86
2024/03/31 03:01:13;;;;;;;25.10;4.93;;;;;;;;;;5012254;28;20225;-86
2024/03/31 03:04:17;;;;;;;29.83;3.97;;;;;;;;;;5013016;28;20180;-86
2024/03/31 03:07:21;;;;;;;25.60;4.20;;;;;;;;;;5001775;28;20709;-86
2024/03/31 03:10:25;;;;;;;28.70;4.07;;;;;;;;;;5012964;28;20181;-86
2024/03/31 03:13:29;;;;;;;33.23;4.77;;;;;;;;;;5012534;28;20188;-86
2024/03/31 03:16:33;;;;;;;29.23;5.03;;;;;;;;;;5001639;28;20212;-86
2024/03/31 03:19:37;;;;;;;37.07;5.20;;;;;;;;;;5012366;28;20204;-86
2024/03/31 03:22:42;;;;;;;29.17;4.80;;;;;;;;;;5001519;28;20185;-86
2024/03/31 03:25:56;;;;;;;28.63;4.20;;;;;;;;;;5001320;28;20213;-86
2024/03/31 03:28:59;;;;;;;27.57;4.73;;;;;;;;;;5012397;28;20193;-86
2024/03/31 03:32:07;;;;;;;19.33;4.80;;;;;;;;;;5001917;28;20232;-86
2024/03/31 03:35:12;;;;;;;29.37;4.97;;;;;;;;;;5000863;28;20177;-86
2024/03/31 03:38:15;;;;;;;28.60;5.30;;;;;;;;;;5001033;28;20185;-86
2024/03/31 03:41:21;;;;;;;25.10;5.40;;;;;;;;;;5001086;28;20208;-86
2024/03/31 03:44:25;;;;;;;28.03;4.67;;;;;;;;;;5001744;28;20176;-86
2024/03/31 03:47:30;;;;;;;23.07;4.13;;;;;;;;;;5001151;28;20216;-86
2024/03/31 03:50:37;;;;;;;33.37;4.30;;;;;;;;;;5001171;28;20488;-86
2024/03/31 03:53:41;;;;;;;28.97;4.90;;;;;;;;;;5000595;28;20180;-86
2024/03/31 03:56:46;;;;;;;30.83;5.40;;;;;;;;;;5000858;28;20563;-86
2024/03/31 03:59:51;;;;;;;31.03;4.40;;;;;;;;;;5001177;28;20228;-86
2024/03/31 04:02:55;;;;;;;29.50;4.90;;;;;;;;;;5011996;28;20177;-86
2024/03/31 04:05:59;;;;;;;29.30;4.47;;;;;;;;;;5000879;28;20574;-86
2024/03/31 04:09:04;;;;;;;27.77;4.23;;;;;;;;;;5001128;28;20181;-86
2024/03/31 04:12:08;;;;;;;20.97;4.53;;;;;;;;;;5001073;28;20177;-86
2024/03/31 04:15:13;;;;;;;21.67;5.80;;;;;;;;;;5001263;28;20185;-86
2024/03/31 04:18:17;;;;;;;25.23;4.10;;;;;;;;;;5001413;28;20530;-86
2024/03/31 04:21:21;;;;;;;21.87;4.80;;;;;;;;;;5000680;28;20212;-86
2024/03/31 04:24:25;;;;;;;21.33;5.40;;;;;;;;;;5001369;28;20180;-86
2024/03/31 04:27:29;;;;;;;25.00;4.33;;;;;;;;;;5001128;28;20571;-86
2024/03/31 04:30:42;;;;;;;22.40;4.17;;;;;;;;;;5001107;28;20177;-86
2024/03/31 04:33:47;;;;;;;24.80;4.03;;;;;;;;;;5011820;28;20515;-86
2024/03/31 04:36:51;;;;;;;28.07;4.07;;;;;;;;;;5000329;28;20223;-86
2024/03/31 04:39:56;;;;;;;19.70;3.70;;;;;;;;;;5011781;28;20213;-86
2024/03/31 04:43:01;;;;;;;24.20;4.20;;;;;;;;;;5000350;28;20185;-86
2024/03/31 04:46:09;;;;;;;26.33;4.23;;;;;;;;;;5000428;28;20228;-86
2024/03/31 04:49:14;;;;;;;22.23;3.70;;;;;;;;;;5000804;28;20186;-86
2024/03/31 04:52:19;;;;;;;17.93;3.90;;;;;;;;;;5010979;28;20181;-86
2024/03/31 04:55:23;;;;;;;32.47;4.73;;;;;;;;;;5010986;28;20185;-86
2024/03/31 04:58:29;;;;;;;23.03;4.30;;;;;;;;;;5011265;28;20185;-86
2024/03/31 05:01:33;;;;;;;15.63;3.73;;;;;;;;;;5000235;28;20697;-86
2024/03/31 05:04:38;;;;;;;22.53;3.63;;;;;;;;;;5000325;28;20181;-86
2024/03/31 05:07:42;;;;;;;24.57;3.60;;;;;;;;;;5000470;28;20181;-86
2024/03/31 05:10:57;;;;;;;18.07;3.67;;;;;;;;;;5000426;28;20181;-86
2024/03/31 05:14:02;;;;;;;18.37;4.07;;;;;;;;;;5014534;28;20181;-86
2024/03/31 05:17:07;;;;;;;19.27;4.37;;;;;;;;;;5003640;28;20216;-86
2024/03/31 05:20:12;;;;;;;15.27;3.60;;;;;;;;;;5003701;28;20209;-86
2024/03/31 05:23:16;;;;;;;27.60;4.80;;;;;;;;;;5003636;28;20180;-86
2024/03/31 05:26:21;;;;;;;29.23;4.33;;;;;;;;;;5004082;28;20224;-86
2024/03/31 05:29:27;;;;;;;21.03;4.40;;;;;;;;;;5003417;28;20185;-86
2024/03/31 05:32:32;;;;;;;15.80;5.37;;;;;;;;;;5003331;28;20185;-86
2024/03/31 05:36:02;;;;;;;28.43;5.73;;;;;;;;;;5017745;28;20220;-86
2024/03/31 05:39:07;;;;;;;27.63;4.53;;;;;;;;;;5003327;28;20185;-86
2024/03/31 05:42:11;;;;;;;20.00;4.00;;;;;;;;;;5002972;28;20669;-86
2024/03/31 05:45:15;;;;;;;19.03;3.93;;;;;;;;;;5002920;28;20189;-86
2024/03/31 05:48:19;;;;;;;24.70;4.00;;;;;;;;;;5013944;28;20185;-86
2024/03/31 05:51:27;;;;;;;22.10;3.70;;;;;;;;;;5003368;28;20177;-86
2024/03/31 05:54:31;;;;;;;23.23;3.80;;;;;;;;;;5013847;28;20185;-86
2024/03/31 05:57:37;;;;;;;28.00;5.17;;;;;;;;;;5002771;28;20181;-86
2024/03/31 06:00:43;;;;;;;26.57;4.27;;;;;;;;;;5002594;28;20228;-86
2024/03/31 06:03:48;;;;;;;22.80;4.77;;;;;;;;;;5002728;28;20185;-86
2024/03/31 06:06:53;;;;;;;23.60;4.17;;;;;;;;;;5002889;28;20696;-86
2024/03/31 06:09:58;;;;;;;22.43;4.60;;;;;;;;;;5002288;28;20185;-86
2024/03/31 06:13:01;;;;;;;26.93;5.47;;;;;;;;;;5013797;28;20185;-86
2024/03/31 06:16:06;;;;;;;26.60;5.67;;;;;;;;;;5002275;28;20216;-86
2024/03/31 06:19:10;;;;;;;17.90;5.20;;;;;;;;;;5002392;28;20181;-86
2024/03/31 06:22:14;;;;;;;25.73;5.17;;;;;;;;;;5002507;28;20209;-86
2024/03/31 06:25:19;;;;;;;27.30;7.73;;;;;;;;;;5001533;28;20181;-86
2024/03/31 06:28:23;;;;;;;22.40;6.83;;;;;;;;;;5030193;28;20184;-86
2024/03/31 06:31:28;;;;;;;26.47;8.43;;;;;;;;;;5001973;28;20173;-87
2024/03/31 06:34:35;;;;;;;30.83;7.50;;;;;;;;;;5003031;28;20185;-88
2024/03/31 06:37:39;;;;;;;19.60;5.87;;;;;;;;;;5003312;28;20185;-87
2024/03/31 06:40:44;;;;;;;27.40;5.80;;;;;;;;;;5002199;28;20217;-87
2024/03/31 06:43:49;;;;;;;21.43;4.20;;;;;;;;;;5013533;28;20522;-87
2024/03/31 06:46:54;;;;;;;18.70;4.20;;;;;;;;;;5002030;28;20220;-87
2024/03/31 06:49:59;;;;;;;24.67;4.50;;;;;;;;;;5001760;28;20634;-88
2024/03/31 06:53:03;;;;;;;22.53;4.20;;;;;;;;;;5012869;28;20172;-88
2024/03/31 06:56:08;;;;;;;24.73;5.30;;;;;;;;;;5024269;28;20212;-88
2024/03/31 06:59:14;;;;;;;29.17;6.93;;;;;;;;;;5012786;28;20184;-88
2024/03/31 07:02:18;;;;;;;34.83;10.43;;;;;;;;;;5024337;28;20213;-88
2024/03/31 07:05:22;;;;;;;26.17;7.37;;;;;;;;;;5012716;28;20184;-88
2024/03/31 07:08:26;;;;;;;28.23;7.53;;;;;;;;;;5013118;28;20177;-87
2024/03/31 07:11:30;;;;;;;52.33;18.10;;;;;;;;;;5024834;28;20519;-87
2024/03/31 07:14:36;;;;;;;43.43;14.27;;;;;;;;;;5001301;28;20188;-87
2024/03/31 07:17:43;;;;;;;27.27;6.93;;;;;;;;;;5013573;28;20256;-88
2024/03/31 07:20:47;;;;;;;27.50;5.67;;;;;;;;;;5012822;28;20570;-88
2024/03/31 07:23:51;;;;;;;18.07;5.57;;;;;;;;;;5013513;28;20188;-87
2024/03/31 07:26:55;;;;;;;19.93;5.07;;;;;;;;;;5014000;28;20220;-88
2024/03/31 07:29:59;;;;;;;22.30;5.27;;;;;;;;;;5013006;28;20184;-88
2024/03/31 07:33:04;;;;;;;29.70;5.63;;;;;;;;;;5013251;28;20527;-88
2024/03/31 07:36:08;;;;;;;20.27;4.47;;;;;;;;;;5014067;28;20220;-88
2024/03/31 07:39:12;;;;;;;32.33;5.13;;;;;;;;;;5024221;28;20185;-88
2024/03/31 07:42:16;;;;;;;25.20;4.37;;;;;;;;;;5001315;28;20666;-88
2024/03/31 07:45:20;;;;;;;21.97;4.90;;;;;;;;;;5024023;28;20181;-88
2024/03/31 07:48:24;;;;;;;24.83;5.17;;;;;;;;;;5012013;28;20188;-88
2024/03/31 07:51:28;;;;;;;21.50;4.20;;;;;;;;;;5011868;28;20617;-88
2024/03/31 07:54:32;;;;;;;24.43;4.57;;;;;;;;;;5001006;28;20637;-88
2024/03/31 07:57:37;;;;;;;21.90;3.93;;;;;;;;;;5023417;28;20196;-87
2024/03/31 08:00:41;;;;;;;21.00;4.00;;;;;;;;;;5011929;28;20204;-87
2024/03/31 08:03:45;;;;;;;28.37;4.23;;;;;;;;;;5013795;28;20177;-88
2024/03/31 08:06:50;;;;;;;18.27;4.20;;;;;;;;;;5001398;28;20212;-88
2024/03/31 08:09:54;;;;;;;21.90;3.97;;;;;;;;;;5024109;28;20180;-88
2024/03/31 08:13:01;;;;;;;25.27;5.17;;;;;;;;;;5023201;28;20176;-87
2024/03/31 08:16:05;;;;;;;22.60;3.43;;;;;;;;;;5036007;28;20212;-86
2024/03/31 08:19:09;;;;;;;24.23;4.53;;;;;;;;;;5001012;28;20181;-87
2024/03/31 08:22:13;;;;;;;26.03;4.50;;;;;;;;;;5023481;28;20208;-87
2024/03/31 08:25:18;;;;;;;17.53;4.40;;;;;;;;;;5023380;28;20184;-88
2024/03/31 08:28:22;;;;;;;21.77;4.53;;;;;;;;;;5023062;28;20181;-88
2024/03/31 08:31:26;;;;;;;20.90;3.77;;;;;;;;;;5011743;28;20177;-88
2024/03/31 08:34:30;;;;;;;20.63;4.03;;;;;;;;;;5011579;28;20184;-89
2024/03/31 08:37:34;;;;;;;30.90;5.37;;;;;;;;;;5023159;28;20180;-89
2024/03/31 08:40:39;;;;;;;28.80;5.33;;;;;;;;;;5000214;28;20181;-87
2024/03/31 08:43:48;;;;;;;24.97;5.60;;;;;;;;;;5011288;28;20181;-88
2024/03/31 08:46:59;;;;;;;25.70;6.00;;;;;;;;;;5023420;28;20535;-88
2024/03/31 08:50:03;;;;;;;27.73;5.67;;;;;;;;;;5038426;28;20180;-87
2024/03/31 08:53:07;;;;;;;27.80;5.87;;;;;;;;;;5027634;28;20172;-87
2024/03/31 08:56:11;;;;;;;27.43;5.93;;;;;;;;;;5038474;28;20216;-89
2024/03/31 08:59:15;;;;;;;28.00;5.43;;;;;;;;;;5025864;28;20177;-88
2024/03/31 09:02:23;;;;;;;15.87;4.40;;;;;;;;;;5013967;28;20205;-89
2024/03/31 09:05:27;;;;;;;29.37;5.80;;;;;;;;;;5014126;28;20173;-88
2024/03/31 09:08:31;;;;;;;30.70;5.67;;;;;;;;;;5036600;28;20184;-88
2024/03/31 09:11:35;;;;;;;18.93;4.87;;;;;;;;;;5036950;28;20181;-88
2024/03/31 09:14:41;;;;;;;23.57;4.83;;;;;;;;;;5025240;28;20185;-88
2024/03/31 09:17:45;;;;;;;25.43;4.17;;;;;;;;;;5025158;28;20181;-88
2024/03/31 09:20:49;;;;;;;25.07;4.40;;;;;;;;;;5037319;28;20185;-88
2024/03/31 09:23:53;;;;;;;25.60;4.27;;;;;;;;;;5013442;28;20654;-88
2024/03/31 09:26:58;;;;;;;22.90;4.37;;;;;;;;;;5025797;28;20562;-88
2024/03/31 09:30:06;;;;;;;23.43;3.60;;;;;;;;;;5025431;28;20181;-88
2024/03/31 09:33:10;;;;;;;21.77;4.73;;;;;;;;;;5025463;28;20220;-89
2024/03/31 09:36:15;;;;;;;26.03;4.40;;;;;;;;;;5036611;28;20220;-89
2024/03/31 09:39:19;;;;;;;22.50;4.17;;;;;;;;;;5025105;28;20185;-88
2024/03/31 09:42:25;;;;;;;24.53;4.63;;;;;;;;;;5036285;28;20208;-88
2024/03/31 09:45:29;;;;;;;23.07;4.20;;;;;;;;;;5036123;28;20220;-88
2024/03/31 09:48:38;;;;;;;27.80;4.83;;;;;;;;;;5036589;28;20185;-88
2024/03/31 09:51:48;;;;;;;26.60;3.97;;;;;;;;;;5013820;28;20177;-88
2024/03/31 09:54:54;;;;;;;25.70;4.00;;;;;;;;;;5025106;28;20181;-88
2024/03/31 09:57:59;;;;;;;27.47;4.37;;;;;;;;;;5024807;28;20614;-88
2024/03/31 10:01:06;;;;;;;21.50;4.03;;;;;;;;;;5012901;28;20212;-88
2024/03/31 10:04:24;;;;;;;29.10;4.30;;;;;;;;;;5013101;28;20177;-88
2024/03/31 10:07:29;;;;;;;32.03;4.13;;;;;;;;;;5024066;28;20216;-88
2024/03/31 10:10:38;;;;;;;23.03;4.27;;;;;;;;;;5024339;28;20181;-88
2024/03/31 10:13:43;;;;;;;28.87;4.03;;;;;;;;;;5023857;28;20177;-88
2024/03/31 10:16:48;;;;;;;23.77;4.80;;;;;;;;;;5035332;28;20216;-88
2024/03/31 10:19:54;;;;;;;23.33;4.03;;;;;;;;;;5024184;28;20177;-88
2024/03/31 10:22:59;;;;;;;22.30;4.23;;;;;;;;;;5035762;28;20208;-88
2024/03/31 10:26:03;;;;;;;22.87;3.77;;;;;;;;;;5001051;28;20221;-88
2024/03/31 10:29:09;;;;;;;26.30;4.00;;;;;;;;;;5023790;28;20176;-88
2024/03/31 10:32:13;;;;;;;32.00;4.80;;;;;;;;;;5035639;28;20181;-88
2024/03/31 10:35:17;;;;;;;27.77;5.00;;;;;;;;;;5023623;28;20188;-88
2024/03/31 10:38:21;;;;;;;36.63;5.50;;;;;;;;;;5023752;28;20181;-88
2024/03/31 10:41:26;;;;;;;29.07;5.80;;;;;;;;;;5023335;28;20185;-89
2024/03/31 10:44:31;;;;;;;25.30;5.00;;;;;;;;;;5023581;28;20519;-88
2024/03/31 10:47:36;;;;;;;25.73;4.87;;;;;;;;;;5012250;28;20642;-88
2024/03/31 10:50:43;;;;;;;33.30;5.87;;;;;;;;;;5024154;28;20185;-88
2024/03/31 10:53:47;;;;;;;29.47;5.30;;;;;;;;;;5023380;28;20185;-87
2024/03/31 10:56:58;;;;;;;32.03;4.97;;;;;;;;;;5025506;28;20693;-88
2024/03/31 11:00:05;;;;;;;26.77;4.90;;;;;;;;;;5034755;28;20204;-88
2024/03/31 11:03:10;;;;;;;30.10;5.47;;;;;;;;;;5012170;28;20200;-88
2024/03/31 11:06:16;;;;;;;29.83;5.37;;;;;;;;;;5012024;28;20221;-88
2024/03/31 11:09:20;;;;;;;26.40;4.60;;;;;;;;;;5035417;28;20185;-88
2024/03/31 11:12:25;;;;;;;40.80;5.23;;;;;;;;;;5000586;28;20180;-88
2024/03/31 11:15:29;;;;;;;31.53;4.53;;;;;;;;;;5023657;28;20216;-90
2024/03/31 11:18:33;;;;;;;38.67;4.67;;;;;;;;;;5023573;28;20185;-91
2024/03/31 11:21:37;;;;;;;35.87;6.17;;;;;;;;;;5036200;28;20181;-91
2024/03/31 11:24:42;;;;;;;38.30;4.97;;;;;;;;;;5023849;28;20177;-91
2024/03/31 11:27:47;;;;;;;39.60;5.30;;;;;;;;;;5012344;28;20189;-90
2024/03/31 11:30:51;;;;;;;25.37;4.40;;;;;;;;;;5000906;28;20181;-90
2024/03/31 11:33:57;;;;;;;27.53;5.20;;;;;;;;;;5035207;28;20633;-90
2024/03/31 11:37:05;;;;;;;28.60;4.47;;;;;;;;;;5022619;28;20220;-90
2024/03/31 11:40:11;;;;;;;31.73;5.10;;;;;;;;;;5022626;28;20181;-90
2024/03/31 11:43:16;;;;;;;25.20;4.17;;;;;;;;;;5022650;28;20213;-90
2024/03/31 11:46:19;;;;;;;28.57;4.93;;;;;;;;;;5022392;28;20217;-90
2024/03/31 11:49:24;;;;;;;35.37;5.23;;;;;;;;;;5022796;28;20181;-91
2024/03/31 11:52:28;;;;;;;44.40;5.27;;;;;;;;;;5022650;28;20180;-91
2024/03/31 11:55:32;;;;;;;27.97;4.83;;;;;;;;;;5022832;28;20217;-91
2024/03/31 11:58:37;;;;;;;26.07;4.13;;;;;;;;;;5011234;28;20177;-90
2024/03/31 12:01:40;;;;;;;22.53;4.70;;;;;;;;;;5010932;28;20204;-90
2024/03/31 12:04:51;;;;;;;41.60;5.53;;;;;;;;;;5011459;28;20654;-91
2024/03/31 12:07:55;;;;;;;34.60;5.20;;;;;;;;;;5034632;28;20188;-90
2024/03/31 12:10:59;;;;;;;31.83;4.80;;;;;;;;;;5022031;28;20185;-91
2024/03/31 12:14:05;;;;;;;27.47;4.13;;;;;;;;;;5022459;28;20184;-91
2024/03/31 12:17:09;;;;;;;31.23;4.23;;;;;;;;;;5021605;28;20220;-91
2024/03/31 12:20:13;;;;;;;40.13;4.43;;;;;;;;;;5010803;28;20638;-91
2024/03/31 12:23:17;;;;;;;37.73;5.13;;;;;;;;;;5024059;28;20673;-91
2024/03/31 12:26:22;;;;;;;30.70;5.03;;;;;;;;;;5026200;28;20220;-90
2024/03/31 12:29:27;;;;;;;34.90;4.50;;;;;;;;;;5004880;28;20181;-90
2024/03/31 12:32:32;;;;;;;31.33;4.90;;;;;;;;;;5040782;28;20622;-91
2024/03/31 12:35:36;;;;;;;28.80;4.83;;;;;;;;;;5026659;28;20700;-90
2024/03/31 12:38:44;;;;;;;23.97;5.40;;;;;;;;;;5015862;28;20180;-90
2024/03/31 12:41:48;;;;;;;38.77;5.73;;;;;;;;;;5004255;28;20527;-90
2024/03/31 12:44:56;;;;;;;27.23;4.83;;;;;;;;;;5038201;28;20173;-89
2024/03/31 12:48:02;;;;;;;23.70;4.93;;;;;;;;;;5026176;28;20630;-90
2024/03/31 12:51:07;;;;;;;28.00;5.43;;;;;;;;;;5038605;28;20177;-90
2024/03/31 12:54:11;;;;;;;30.73;4.80;;;;;;;;;;5016183;28;20619;-91
2024/03/31 12:57:15;;;;;;;32.20;4.20;;;;;;;;;;5026189;28;20236;-89
2024/03/31 13:00:19;;;;;;;33.07;5.07;;;;;;;;;;5025626;28;20205;-90
2024/03/31 13:03:24;;;;;;;34.80;4.63;;;;;;;;;;5037842;28;20212;-89
2024/03/31 13:06:28;;;;;;;27.43;4.73;;;;;;;;;;5004011;28;20212;-90
2024/03/31 13:09:34;;;;;;;41.10;4.90;;;;;;;;;;5026384;28;20185;-89
2024/03/31 13:12:37;;;;;;;32.97;4.77;;;;;;;;;;5014090;28;20177;-89
2024/03/31 13:15:42;;;;;;;38.87;4.80;;;;;;;;;;5014387;28;20220;-89
2024/03/31 13:18:46;;;;;;;32.43;4.70;;;;;;;;;;5025766;28;20176;-89
2024/03/31 13:21:50;;;;;;;40.27;4.97;;;;;;;;;;5017698;28;20185;-89
2024/03/31 13:24:54;;;;;;;28.00;4.97;;;;;;;;;;5040754;28;20169;-90
2024/03/31 13:27:59;;;;;;;34.57;4.73;;;;;;;;;;5019959;28;20185;-90
2024/03/31 13:31:03;;;;;;;36.70;4.20;;;;;;;;;;5030361;28;20618;-89
2024/03/31 13:34:08;;;;;;;27.10;4.53;;;;;;;;;;5007344;28;20177;-89
2024/03/31 13:37:13;;;;;;;26.30;4.63;;;;;;;;;;5007236;28;20212;-89
2024/03/31 13:40:17;;;;;;;26.07;4.30;;;;;;;;;;5030269;28;20180;-89
2024/03/31 13:43:21;;;;;;;30.60;4.50;;;;;;;;;;5029438;28;20208;-89
2024/03/31 13:46:25;;;;;;;28.57;6.00;;;;;;;;;;5017505;28;20212;-89
2024/03/31 13:49:29;;;;;;;31.70;4.53;;;;;;;;;;5007703;28;20180;-89
2024/03/31 13:52:34;;;;;;;39.57;5.70;;;;;;;;;;5031147;28;20188;-90
2024/03/31 13:55:38;;;;;;;24.37;4.70;;;;;;;;;;5020091;28;20217;-89
2024/03/31 13:58:42;;;;;;;25.33;4.57;;;;;;;;;;5021287;28;20622;-90
2024/03/31 14:01:46;;;;;;;30.87;4.53;;;;;;;;;;5025963;28;20204;-90
2024/03/31 14:04:50;;;;;;;25.47;4.40;;;;;;;;;;5032896;28;20212;-90
2024/03/31 14:07:55;;;;;;;29.50;4.70;;;;;;;;;;5034503;28;20180;-89
2024/03/31 14:10:59;;;;;;;23.17;4.10;;;;;;;;;;5012057;28;20181;-90
2024/03/31 14:14:03;;;;;;;25.10;4.50;;;;;;;;;;5033658;28;20181;-90
2024/03/31 14:17:07;;;;;;;33.10;4.63;;;;;;;;;;5010947;28;20582;-90
2024/03/31 14:20:12;;;;;;;29.03;4.73;;;;;;;;;;5009624;28;20185;-89
2024/03/31 14:23:16;;;;;;;24.10;4.57;;;;;;;;;;5032736;28;20212;-88
2024/03/31 14:26:20;;;;;;;28.57;4.80;;;;;;;;;;5010112;28;20212;-87
2024/03/31 14:29:24;;;;;;;23.53;4.57;;;;;;;;;;5021871;28;20177;-87
2024/03/31 14:32:28;;;;;;;34.83;11.70;;;;;;;;;;5009913;28;20176;-88
2024/03/31 14:35:35;;;;;;;20.17;4.30;;;;;;;;;;5021936;28;20223;-88
2024/03/31 14:38:39;;;;;;;27.23;4.63;;;;;;;;;;5009522;28;20185;-88
2024/03/31 14:41:43;;;;;;;22.00;4.70;;;;;;;;;;5008770;28;20180;-88
2024/03/31 14:44:48;;;;;;;30.30;5.03;;;;;;;;;;5019476;28;20208;-88
2024/03/31 14:47:52;;;;;;;28.70;5.23;;;;;;;;;;5009632;28;20180;-86
2024/03/31 14:50:57;;;;;;;19.37;4.20;;;;;;;;;;5032248;28;20185;-88
2024/03/31 14:54:01;;;;;;;29.70;4.70;;;;;;;;;;5009740;28;20177;-88
2024/03/31 14:57:06;;;;;;;29.77;4.33;;;;;;;;;;5008541;28;20213;-88
2024/03/31 15:00:20;;;;;;;25.57;4.30;;;;;;;;;;5009694;28;20626;-89
2024/03/31 15:03:25;;;;;;;25.10;4.93;;;;;;;;;;5032571;28;20554;-91
2024/03/31 15:06:29;;;;;;;22.83;4.87;;;;;;;;;;5011171;28;20216;-88
2024/03/31 15:09:33;;;;;;;21.13;4.07;;;;;;;;;;5006909;28;20185;-88
2024/03/31 15:12:37;;;;;;;28.87;4.33;;;;;;;;;;5008514;28;20518;-91
2024/03/31 15:15:45;;;;;;;28.70;3.80;;;;;;;;;;5010181;28;20204;-88
2024/03/31 15:18:51;;;;;;;29.43;4.73;;;;;;;;;;5014602;28;20184;-89
2024/03/31 15:21:55;;;;;;;26.37;4.90;;;;;;;;;;5025517;28;20185;-89
2024/03/31 15:24:59;;;;;;;28.13;4.80;;;;;;;;;;5013635;28;20213;-89
2024/03/31 15:28:04;;;;;;;23.47;4.10;;;;;;;;;;5015358;28;20653;-89
2024/03/31 15:31:23;;;;;;;29.13;5.33;;;;;;;;;;5024776;28;20177;-88
2024/03/31 15:34:31;;;;;;;21.10;4.17;;;;;;;;;;5021442;28;20181;-89
2024/03/31 15:37:36;;;;;;;27.83;4.43;;;;;;;;;;5032596;28;20181;-88
2024/03/31 15:40:46;;;;;;;20.07;4.17;;;;;;;;;;5010862;28;20173;-90
2024/03/31 15:44:06;;;;;;;28.47;4.50;;;;;;;;;;5027340;28;20189;-88
2024/03/31 15:47:11;;;;;;;28.50;4.27;;;;;;;;;;5030320;28;20217;-82
2024/03/31 15:55:00;;;;;;;22.87;3.83;;;;;;;;;;5024902;28;20642;-82
2024/03/31 15:58:10;;;;;;;24.20;4.00;;;;;;;;;;5023821;28;20176;-88
2024/03/31 16:17:02;;;;;;;20.87;4.80;;;;;;;;;;5038449;28;20224;-84
2024/03/31 16:44:53;;;;;;;29.57;4.73;;;;;;;;;;4958404;29;20223;-89
2024/03/31 16:48:47;;;;;;;25.83;5.47;;;;;;;;;;4951474;29;20194;-78
2024/03/31 17:07:07;;;;;;;33.73;5.17;;;;;;;;;;5036649;28;20228;-89
2024/03/31 17:17:11;;;;;;;26.83;5.07;;;;;;;;;;4978493;28;20680;-90
2024/03/31 17:41:37;;;;;;;18.30;3.17;;;;;;;;;;4882152;29;20201;-88
2024/03/31 17:44:40;;;;;;;30.27;5.10;;;;;;;;;;4914067;29;20327;-88
2024/03/31 17:47:45;;;;;;;32.40;4.57;;;;;;;;;;4955627;28;20208;-89
2024/03/31 17:50:49;;;;;;;29.23;4.33;;;;;;;;;;5038013;28;20622;-89
2024/03/31 17:53:53;;;;;;;29.30;5.07;;;;;;;;;;5026002;28;20177;-89
2024/03/31 17:56:57;;;;;;;27.77;4.27;;;;;;;;;;5014329;28;20685;-89
2024/03/31 18:00:02;;;;;;;27.17;3.90;;;;;;;;;;5014894;28;20177;-89
2024/03/31 18:03:10;;;;;;;22.17;3.83;;;;;;;;;;5015661;28;20181;-90
2024/03/31 18:06:15;;;;;;;21.20;3.90;;;;;;;;;;5016613;28;20213;-90
2024/03/31 18:09:19;;;;;;;25.13;4.20;;;;;;;;;;5015616;28;20185;-90
2024/03/31 18:12:26;;;;;;;26.67;4.90;;;;;;;;;;5026586;28;20177;-90
2024/03/31 18:15:31;;;;;;;28.57;3.83;;;;;;;;;;5003780;28;20220;-89
2024/03/31 18:18:37;;;;;;;16.50;3.47;;;;;;;;;;5015466;28;20185;-90
2024/03/31 18:21:41;;;;;;;17.57;3.90;;;;;;;;;;5024908;28;20642;-89
2024/03/31 18:24:45;;;;;;;19.97;3.83;;;;;;;;;;5003415;28;20205;-89
2024/03/31 18:27:49;;;;;;;14.00;3.20;;;;;;;;;;5014822;28;20192;-90
2024/03/31 18:30:57;;;;;;;22.50;3.73;;;;;;;;;;5013983;28;20185;-90
2024/03/31 18:34:02;;;;;;;22.93;3.23;;;;;;;;;;5002853;28;20615;-90
2024/03/31 18:37:06;;;;;;;12.07;2.63;;;;;;;;;;5025350;28;20224;-90
2024/03/31 18:40:10;;;;;;;14.27;2.63;;;;;;;;;;5025339;28;20185;-90
2024/03/31 18:43:15;;;;;;;13.93;2.43;;;;;;;;;;5025012;28;20204;-90
2024/03/31 18:46:19;;;;;;;13.87;2.57;;;;;;;;;;5013753;28;20205;-90
2024/03/31 18:49:23;;;;;;;9.60;2.53;;;;;;;;;;5025701;28;20181;-90
2024/03/31 18:52:28;;;;;;;11.70;2.03;;;;;;;;;;5013703;28;20180;-90
2024/03/31 18:55:32;;;;;;;10.10;2.97;;;;;;;;;;5013632;28;20217;-90
2024/03/31 18:58:36;;;;;;;11.00;1.90;;;;;;;;;;5024519;28;20184;-90
2024/03/31 19:01:41;;;;;;;5.57;1.40;;;;;;;;;;5013751;28;20622;-90
2024/03/31 19:04:45;;;;;;;7.47;1.87;;;;;;;;;;5025188;28;20208;-90
2024/03/31 19:07:50;;;;;;;8.43;1.33;;;;;;;;;;5036736;28;20184;-90
2024/03/31 19:10:58;;;;;;;6.97;1.60;;;;;;;;;;5013904;28;20181;-90
2024/03/31 19:14:04;;;;;;;8.77;1.43;;;;;;;;;;5025127;28;20189;-90
2024/03/31 19:17:08;;;;;;;5.83;1.40;;;;;;;;;;5002660;28;20212;-90
2024/03/31 19:20:12;;;;;;;3.40;1.10;;;;;;;;;;5013069;28;20177;-90
2024/03/31 19:23:16;;;;;;;2.43;1.23;;;;;;;;;;5024330;28;20609;-90
2024/03/31 19:26:20;;;;;;;4.27;1.07;;;;;;;;;;5014138;28;20217;-90
2024/03/31 19:29:24;;;;;;;5.67;1.40;;;;;;;;;;5025534;28;20523;-91
2024/03/31 19:32:29;;;;;;;3.63;1.13;;;;;;;;;;5013613;28;20181;-90
2024/03/31 19:35:37;;;;;;;4.30;1.00;;;;;;;;;;5013746;28;20213;-90
2024/03/31 19:38:42;;;;;;;5.27;0.90;;;;;;;;;;5013845;28;20634;-90
2024/03/31 19:41:46;;;;;;;5.83;0.80;;;;;;;;;;5012699;28;20208;-90
2024/03/31 19:44:51;;;;;;;1.13;0.60;;;;;;;;;;5013179;28;20208;-90